sensor_id;sensor_type;location;lat;lon;timestamp;temperature;humidity
8711;DHT22;4392;47.400;8.062;2022-07-10T00:00:32;24.20;67.10
8711;DHT22;4392;47.400;8.062;2022-07-10T00:02:58;24.20;66.90
8711;DHT22;4392;47.400;8.062;2022-07-10T00:05:25;24.30;67.50
8711;DHT22;4392;47.400;8.062;2022-07-10T00:07:51;24.30;67.10
8711;DHT22;4392;47.400;8.062;2022-07-10T00:10:21;24.30;66.60
8711;DHT22;4392;47.400;8.062;2022-07-10T00:12:48;24.30;66.70
8711;DHT22;4392;47.400;8.062;2022-07-10T00:15:14;24.30;67.10
8711;DHT22;4392;47.400;8.062;2022-07-10T00:17:41;24.30;67.50
8711;DHT22;4392;47.400;8.062;2022-07-10T00:20:08;24.30;67.50
8711;DHT22;4392;47.400;8.062;2022-07-10T00:22:34;24.30;66.60
8711;DHT22;4392;47.400;8.062;2022-07-10T00:25:01;24.10;65.80
8711;DHT22;4392;47.400;8.062;2022-07-10T00:27:27;24.00;66.60
8711;DHT22;4392;47.400;8.062;2022-07-10T00:29:53;24.00;66.00
8711;DHT22;4392;47.400;8.062;2022-07-10T00:32:18;24.00;66.00
8711;DHT22;4392;47.400;8.062;2022-07-10T00:34:45;24.00;66.10
8711;DHT22;4392;47.400;8.062;2022-07-10T00:37:11;24.00;66.00
8711;DHT22;4392;47.400;8.062;2022-07-10T00:39:39;24.00;66.40
8711;DHT22;4392;47.400;8.062;2022-07-10T00:42:12;24.10;66.50
8711;DHT22;4392;47.400;8.062;2022-07-10T00:44:39;24.10;66.70
8711;DHT22;4392;47.400;8.062;2022-07-10T00:47:06;24.10;66.90
8711;DHT22;4392;47.400;8.062;2022-07-10T00:49:33;24.10;66.80
8711;DHT22;4392;47.400;8.062;2022-07-10T00:52:00;24.10;67.00
8711;DHT22;4392;47.400;8.062;2022-07-10T00:54:29;24.10;66.70
8711;DHT22;4392;47.400;8.062;2022-07-10T00:56:55;24.20;66.80
8711;DHT22;4392;47.400;8.062;2022-07-10T00:59:22;24.20;66.50
8711;DHT22;4392;47.400;8.062;2022-07-10T01:01:49;24.10;66.40
8711;DHT22;4392;47.400;8.062;2022-07-10T01:04:16;24.10;66.30
8711;DHT22;4392;47.400;8.062;2022-07-10T01:06:42;24.20;66.80
8711;DHT22;4392;47.400;8.062;2022-07-10T01:09:10;24.10;67.30
8711;DHT22;4392;47.400;8.062;2022-07-10T01:11:37;24.10;66.70
8711;DHT22;4392;47.400;8.062;2022-07-10T01:14:03;24.10;66.90
8711;DHT22;4392;47.400;8.062;2022-07-10T01:16:29;24.10;66.60
8711;DHT22;4392;47.400;8.062;2022-07-10T01:18:58;24.00;66.60
8711;DHT22;4392;47.400;8.062;2022-07-10T01:21:32;24.00;67.10
8711;DHT22;4392;47.400;8.062;2022-07-10T01:23:59;24.00;66.70
8711;DHT22;4392;47.400;8.062;2022-07-10T01:26:25;23.80;66.80
8711;DHT22;4392;47.400;8.062;2022-07-10T01:28:53;23.80;66.70
8711;DHT22;4392;47.400;8.062;2022-07-10T01:31:19;23.80;66.90
8711;DHT22;4392;47.400;8.062;2022-07-10T01:33:48;23.90;66.60
8711;DHT22;4392;47.400;8.062;2022-07-10T01:36:16;24.00;67.40
8711;DHT22;4392;47.400;8.062;2022-07-10T01:38:43;24.00;66.90
8711;DHT22;4392;47.400;8.062;2022-07-10T01:41:09;24.00;66.70
8711;DHT22;4392;47.400;8.062;2022-07-10T01:43:36;23.90;66.60
8711;DHT22;4392;47.400;8.062;2022-07-10T01:46:03;23.90;67.10
8711;DHT22;4392;47.400;8.062;2022-07-10T01:48:31;23.80;67.20
8711;DHT22;4392;47.400;8.062;2022-07-10T01:50:57;23.90;67.60
8711;DHT22;4392;47.400;8.062;2022-07-10T01:53:23;23.90;67.70
8711;DHT22;4392;47.400;8.062;2022-07-10T01:55:49;23.90;68.50
8711;DHT22;4392;47.400;8.062;2022-07-10T01:58:14;23.90;68.00
8711;DHT22;4392;47.400;8.062;2022-07-10T02:00:40;23.80;67.70
8711;DHT22;4392;47.400;8.062;2022-07-10T02:03:06;23.90;67.80
8711;DHT22;4392;47.400;8.062;2022-07-10T02:05:50;23.90;67.90
8711;DHT22;4392;47.400;8.062;2022-07-10T02:08:16;23.90;68.00
8711;DHT22;4392;47.400;8.062;2022-07-10T02:10:41;23.90;68.00
8711;DHT22;4392;47.400;8.062;2022-07-10T02:13:10;23.90;68.00
8711;DHT22;4392;47.400;8.062;2022-07-10T02:15:37;23.90;68.00
8711;DHT22;4392;47.400;8.062;2022-07-10T02:18:02;23.90;68.00
8711;DHT22;4392;47.400;8.062;2022-07-10T02:20:28;23.90;67.50
8711;DHT22;4392;47.400;8.062;2022-07-10T02:22:54;24.00;67.50
8711;DHT22;4392;47.400;8.062;2022-07-10T02:25:20;24.00;67.50
8711;DHT22;4392;47.400;8.062;2022-07-10T02:27:45;24.00;67.30
8711;DHT22;4392;47.400;8.062;2022-07-10T02:30:11;24.00;67.60
8711;DHT22;4392;47.400;8.062;2022-07-10T02:32:39;24.00;67.60
8711;DHT22;4392;47.400;8.062;2022-07-10T02:35:05;24.00;67.60
8711;DHT22;4392;47.400;8.062;2022-07-10T02:37:30;24.00;67.70
8711;DHT22;4392;47.400;8.062;2022-07-10T02:39:56;24.00;67.80
8711;DHT22;4392;47.400;8.062;2022-07-10T02:42:24;23.90;67.60
8711;DHT22;4392;47.400;8.062;2022-07-10T02:44:53;23.90;67.70
8711;DHT22;4392;47.400;8.062;2022-07-10T02:47:18;23.90;68.10
8711;DHT22;4392;47.400;8.062;2022-07-10T02:49:44;23.90;68.60
8711;DHT22;4392;47.400;8.062;2022-07-10T02:52:10;23.90;68.50
8711;DHT22;4392;47.400;8.062;2022-07-10T02:54:36;23.80;68.30
8711;DHT22;4392;47.400;8.062;2022-07-10T02:57:01;23.80;68.40
8711;DHT22;4392;47.400;8.062;2022-07-10T02:59:27;23.80;68.30
8711;DHT22;4392;47.400;8.062;2022-07-10T03:01:53;23.70;68.90
8711;DHT22;4392;47.400;8.062;2022-07-10T03:04:18;23.70;68.90
8711;DHT22;4392;47.400;8.062;2022-07-10T03:06:44;23.70;69.00
8711;DHT22;4392;47.400;8.062;2022-07-10T03:09:12;23.80;68.80
8711;DHT22;4392;47.400;8.062;2022-07-10T03:11:38;23.80;69.10
8711;DHT22;4392;47.400;8.062;2022-07-10T03:14:03;23.80;69.60
8711;DHT22;4392;47.400;8.062;2022-07-10T03:16:31;23.70;69.50
8711;DHT22;4392;47.400;8.062;2022-07-10T03:18:59;23.80;69.20
8711;DHT22;4392;47.400;8.062;2022-07-10T03:21:25;23.80;69.10
8711;DHT22;4392;47.400;8.062;2022-07-10T03:23:51;23.80;69.40
8711;DHT22;4392;47.400;8.062;2022-07-10T03:26:16;23.80;69.60
8711;DHT22;4392;47.400;8.062;2022-07-10T03:28:42;23.70;69.60
8711;DHT22;4392;47.400;8.062;2022-07-10T03:31:07;23.80;69.50
8711;DHT22;4392;47.400;8.062;2022-07-10T03:33:33;23.80;69.60
8711;DHT22;4392;47.400;8.062;2022-07-10T03:35:59;23.70;69.90
8711;DHT22;4392;47.400;8.062;2022-07-10T03:38:27;23.70;70.40
8711;DHT22;4392;47.400;8.062;2022-07-10T03:40:55;23.70;70.20
8711;DHT22;4392;47.400;8.062;2022-07-10T03:43:23;23.70;69.90
8711;DHT22;4392;47.400;8.062;2022-07-10T03:45:58;23.70;70.60
8711;DHT22;4392;47.400;8.062;2022-07-10T03:48:24;23.70;71.10
8711;DHT22;4392;47.400;8.062;2022-07-10T03:50:51;23.70;70.60
8711;DHT22;4392;47.400;8.062;2022-07-10T03:53:17;23.60;70.30
8711;DHT22;4392;47.400;8.062;2022-07-10T03:55:43;23.50;69.20
8711;DHT22;4392;47.400;8.062;2022-07-10T03:58:09;23.30;69.70
8711;DHT22;4392;47.400;8.062;2022-07-10T04:00:35;23.40;69.60
8711;DHT22;4392;47.400;8.062;2022-07-10T04:03:07;23.30;69.20
8711;DHT22;4392;47.400;8.062;2022-07-10T04:05:33;23.00;69.50
8711;DHT22;4392;47.400;8.062;2022-07-10T04:08:00;22.50;71.30
8711;DHT22;4392;47.400;8.062;2022-07-10T04:10:27;22.50;71.40
8711;DHT22;4392;47.400;8.062;2022-07-10T04:12:53;22.60;69.90
8711;DHT22;4392;47.400;8.062;2022-07-10T04:15:19;22.50;70.10
8711;DHT22;4392;47.400;8.062;2022-07-10T04:17:46;22.40;70.70
8711;DHT22;4392;47.400;8.062;2022-07-10T04:20:15;22.30;71.20
8711;DHT22;4392;47.400;8.062;2022-07-10T04:22:41;22.20;71.40
8711;DHT22;4392;47.400;8.062;2022-07-10T04:25:07;22.10;71.70
8711;DHT22;4392;47.400;8.062;2022-07-10T04:27:34;22.10;71.70
8711;DHT22;4392;47.400;8.062;2022-07-10T04:30:00;22.10;72.20
8711;DHT22;4392;47.400;8.062;2022-07-10T04:32:25;22.10;72.90
8711;DHT22;4392;47.400;8.062;2022-07-10T04:34:53;22.00;73.30
8711;DHT22;4392;47.400;8.062;2022-07-10T04:37:19;22.10;73.90
8711;DHT22;4392;47.400;8.062;2022-07-10T04:39:45;22.10;74.00
8711;DHT22;4392;47.400;8.062;2022-07-10T04:42:10;22.10;74.20
8711;DHT22;4392;47.400;8.062;2022-07-10T04:44:37;22.10;74.00
8711;DHT22;4392;47.400;8.062;2022-07-10T04:47:03;22.00;73.60
8711;DHT22;4392;47.400;8.062;2022-07-10T04:49:29;22.00;73.60
8711;DHT22;4392;47.400;8.062;2022-07-10T04:51:55;21.90;73.90
8711;DHT22;4392;47.400;8.062;2022-07-10T04:54:24;21.90;74.10
8711;DHT22;4392;47.400;8.062;2022-07-10T04:56:50;21.80;75.00
8711;DHT22;4392;47.400;8.062;2022-07-10T04:59:15;21.80;75.60
8711;DHT22;4392;47.400;8.062;2022-07-10T05:01:41;21.90;76.10
8711;DHT22;4392;47.400;8.062;2022-07-10T05:04:08;22.00;75.80
8711;DHT22;4392;47.400;8.062;2022-07-10T05:06:34;21.90;76.00
8711;DHT22;4392;47.400;8.062;2022-07-10T05:09:00;22.00;76.30
8711;DHT22;4392;47.400;8.062;2022-07-10T05:11:26;22.00;76.60
8711;DHT22;4392;47.400;8.062;2022-07-10T05:13:51;21.90;75.80
8711;DHT22;4392;47.400;8.062;2022-07-10T05:16:17;21.90;76.00
8711;DHT22;4392;47.400;8.062;2022-07-10T05:18:43;21.80;76.10
8711;DHT22;4392;47.400;8.062;2022-07-10T05:21:09;21.80;76.10
8711;DHT22;4392;47.400;8.062;2022-07-10T05:23:38;21.80;76.20
8711;DHT22;4392;47.400;8.062;2022-07-10T05:26:04;21.80;76.40
8711;DHT22;4392;47.400;8.062;2022-07-10T05:28:32;21.80;77.10
8711;DHT22;4392;47.400;8.062;2022-07-10T05:30:58;21.80;78.00
8711;DHT22;4392;47.400;8.062;2022-07-10T05:33:24;21.90;78.10
8711;DHT22;4392;47.400;8.062;2022-07-10T05:35:51;21.90;78.70
8711;DHT22;4392;47.400;8.062;2022-07-10T05:38:17;22.00;78.90
8711;DHT22;4392;47.400;8.062;2022-07-10T05:40:43;22.00;79.00
8711;DHT22;4392;47.400;8.062;2022-07-10T05:43:09;22.00;79.10
8711;DHT22;4392;47.400;8.062;2022-07-10T05:45:35;22.00;79.50
8711;DHT22;4392;47.400;8.062;2022-07-10T05:48:01;22.00;78.80
8711;DHT22;4392;47.400;8.062;2022-07-10T05:50:26;22.00;78.60
8711;DHT22;4392;47.400;8.062;2022-07-10T05:52:52;22.00;78.40
8711;DHT22;4392;47.400;8.062;2022-07-10T05:55:18;22.00;78.10
8711;DHT22;4392;47.400;8.062;2022-07-10T05:57:44;22.00;77.80
8711;DHT22;4392;47.400;8.062;2022-07-10T06:00:10;22.00;77.30
8711;DHT22;4392;47.400;8.062;2022-07-10T06:02:36;21.80;77.20
8711;DHT22;4392;47.400;8.062;2022-07-10T06:05:01;21.80;77.10
8711;DHT22;4392;47.400;8.062;2022-07-10T06:07:29;21.80;77.20
8711;DHT22;4392;47.400;8.062;2022-07-10T06:09:55;21.80;77.00
8711;DHT22;4392;47.400;8.062;2022-07-10T06:12:21;21.80;77.10
8711;DHT22;4392;47.400;8.062;2022-07-10T06:14:47;21.80;76.70
8711;DHT22;4392;47.400;8.062;2022-07-10T06:17:12;21.80;77.00
8711;DHT22;4392;47.400;8.062;2022-07-10T06:19:38;21.90;77.00
8711;DHT22;4392;47.400;8.062;2022-07-10T06:22:04;21.80;76.10
8711;DHT22;4392;47.400;8.062;2022-07-10T06:24:48;21.90;76.40
8711;DHT22;4392;47.400;8.062;2022-07-10T06:27:16;21.90;76.80
8711;DHT22;4392;47.400;8.062;2022-07-10T06:29:41;22.00;76.70
8711;DHT22;4392;47.400;8.062;2022-07-10T06:32:08;22.00;76.60
8711;DHT22;4392;47.400;8.062;2022-07-10T06:34:34;22.00;76.30
8711;DHT22;4392;47.400;8.062;2022-07-10T06:37:00;22.00;76.40
8711;DHT22;4392;47.400;8.062;2022-07-10T06:39:26;22.10;76.70
8711;DHT22;4392;47.400;8.062;2022-07-10T06:41:52;22.00;76.60
8711;DHT22;4392;47.400;8.062;2022-07-10T06:44:18;22.10;76.70
8711;DHT22;4392;47.400;8.062;2022-07-10T06:46:46;22.10;76.60
8711;DHT22;4392;47.400;8.062;2022-07-10T06:49:32;22.20;76.60
8711;DHT22;4392;47.400;8.062;2022-07-10T06:51:57;22.10;76.20
8711;DHT22;4392;47.400;8.062;2022-07-10T06:54:23;22.20;75.20
8711;DHT22;4392;47.400;8.062;2022-07-10T06:56:49;22.20;75.30
8711;DHT22;4392;47.400;8.062;2022-07-10T06:59:17;22.20;75.80
8711;DHT22;4392;47.400;8.062;2022-07-10T07:01:42;22.10;76.30
8711;DHT22;4392;47.400;8.062;2022-07-10T07:04:10;22.00;76.40
8711;DHT22;4392;47.400;8.062;2022-07-10T07:06:36;22.10;76.50
8711;DHT22;4392;47.400;8.062;2022-07-10T07:09:02;22.10;76.80
8711;DHT22;4392;47.400;8.062;2022-07-10T07:11:28;22.10;76.80
8711;DHT22;4392;47.400;8.062;2022-07-10T07:13:53;22.10;76.90
8711;DHT22;4392;47.400;8.062;2022-07-10T07:16:19;22.10;76.50
8711;DHT22;4392;47.400;8.062;2022-07-10T07:18:52;22.10;76.50
8711;DHT22;4392;47.400;8.062;2022-07-10T07:21:21;22.10;76.60
8711;DHT22;4392;47.400;8.062;2022-07-10T07:24:06;22.00;76.50
8711;DHT22;4392;47.400;8.062;2022-07-10T07:26:32;21.90;77.50
8711;DHT22;4392;47.400;8.062;2022-07-10T07:28:58;22.00;77.70
8711;DHT22;4392;47.400;8.062;2022-07-10T07:31:24;21.90;78.10
8711;DHT22;4392;47.400;8.062;2022-07-10T07:33:49;21.70;78.70
8711;DHT22;4392;47.400;8.062;2022-07-10T07:36:15;21.90;78.30
8711;DHT22;4392;47.400;8.062;2022-07-10T07:38:41;22.00;78.10
8711;DHT22;4392;47.400;8.062;2022-07-10T07:41:06;22.10;77.70
8711;DHT22;4392;47.400;8.062;2022-07-10T07:43:34;22.00;77.30
8711;DHT22;4392;47.400;8.062;2022-07-10T07:46:00;22.10;77.80
8711;DHT22;4392;47.400;8.062;2022-07-10T07:48:26;22.20;76.20
8711;DHT22;4392;47.400;8.062;2022-07-10T07:50:51;22.20;76.20
8711;DHT22;4392;47.400;8.062;2022-07-10T07:53:17;22.30;76.10
8711;DHT22;4392;47.400;8.062;2022-07-10T07:55:43;22.30;76.30
8711;DHT22;4392;47.400;8.062;2022-07-10T07:58:09;22.40;76.50
8711;DHT22;4392;47.400;8.062;2022-07-10T08:00:34;22.40;76.30
8711;DHT22;4392;47.400;8.062;2022-07-10T08:03:00;22.50;75.20
8711;DHT22;4392;47.400;8.062;2022-07-10T08:05:26;22.50;75.30
8711;DHT22;4392;47.400;8.062;2022-07-10T08:07:57;22.50;75.40
8711;DHT22;4392;47.400;8.062;2022-07-10T08:10:27;22.40;74.90
8711;DHT22;4392;47.400;8.062;2022-07-10T08:12:53;22.10;76.30
8711;DHT22;4392;47.400;8.062;2022-07-10T08:15:21;22.30;76.30
8711;DHT22;4392;47.400;8.062;2022-07-10T08:17:53;22.10;76.10
8711;DHT22;4392;47.400;8.062;2022-07-10T08:20:19;22.20;76.30
8711;DHT22;4392;47.400;8.062;2022-07-10T08:22:45;22.10;77.00
8711;DHT22;4392;47.400;8.062;2022-07-10T08:25:12;22.10;77.90
8711;DHT22;4392;47.400;8.062;2022-07-10T08:27:38;22.10;78.40
8711;DHT22;4392;47.400;8.062;2022-07-10T08:30:05;22.00;78.70
8711;DHT22;4392;47.400;8.062;2022-07-10T08:32:31;22.00;79.70
8711;DHT22;4392;47.400;8.062;2022-07-10T08:34:59;22.20;77.80
8711;DHT22;4392;47.400;8.062;2022-07-10T08:37:26;22.20;77.80
8711;DHT22;4392;47.400;8.062;2022-07-10T08:39:51;22.20;77.10
8711;DHT22;4392;47.400;8.062;2022-07-10T08:42:20;22.10;76.50
8711;DHT22;4392;47.400;8.062;2022-07-10T08:44:47;22.10;76.10
8711;DHT22;4392;47.400;8.062;2022-07-10T08:47:13;22.20;76.40
8711;DHT22;4392;47.400;8.062;2022-07-10T08:49:47;22.30;75.60
8711;DHT22;4392;47.400;8.062;2022-07-10T08:54:53;22.10;78.70
8711;DHT22;4392;47.400;8.062;2022-07-10T08:57:22;22.20;78.50
8711;DHT22;4392;47.400;8.062;2022-07-10T08:59:48;22.30;77.70
8711;DHT22;4392;47.400;8.062;2022-07-10T09:02:14;22.20;77.30
8711;DHT22;4392;47.400;8.062;2022-07-10T09:04:40;22.10;77.20
8711;DHT22;4392;47.400;8.062;2022-07-10T09:07:05;22.20;77.40
8711;DHT22;4392;47.400;8.062;2022-07-10T09:09:55;22.20;76.50
8711;DHT22;4392;47.400;8.062;2022-07-10T09:12:24;22.30;75.60
8711;DHT22;4392;47.400;8.062;2022-07-10T09:14:52;22.20;74.40
8711;DHT22;4392;47.400;8.062;2022-07-10T09:17:18;22.30;74.70
8711;DHT22;4392;47.400;8.062;2022-07-10T09:19:44;22.40;74.40
8711;DHT22;4392;47.400;8.062;2022-07-10T09:22:12;22.30;73.70
8711;DHT22;4392;47.400;8.062;2022-07-10T09:24:46;22.40;73.50
8711;DHT22;4392;47.400;8.062;2022-07-10T09:27:14;22.50;73.30
8711;DHT22;4392;47.400;8.062;2022-07-10T09:29:48;22.60;73.70
8711;DHT22;4392;47.400;8.062;2022-07-10T09:32:17;22.70;74.40
8711;DHT22;4392;47.400;8.062;2022-07-10T09:34:50;22.60;74.60
8711;DHT22;4392;47.400;8.062;2022-07-10T09:37:39;22.60;74.30
8711;DHT22;4392;47.400;8.062;2022-07-10T09:40:07;22.60;72.80
8711;DHT22;4392;47.400;8.062;2022-07-10T09:42:40;22.60;71.90
8711;DHT22;4392;47.400;8.062;2022-07-10T09:47:56;22.50;72.80
8711;DHT22;4392;47.400;8.062;2022-07-10T09:50:26;22.50;73.20
8711;DHT22;4392;47.400;8.062;2022-07-10T09:52:56;22.60;72.00
8711;DHT22;4392;47.400;8.062;2022-07-10T09:55:24;22.80;71.70
8711;DHT22;4392;47.400;8.062;2022-07-10T09:57:59;22.80;71.60
8711;DHT22;4392;47.400;8.062;2022-07-10T10:03:03;22.90;73.10
8711;DHT22;4392;47.400;8.062;2022-07-10T10:08:10;22.80;72.60
8711;DHT22;4392;47.400;8.062;2022-07-10T10:10:40;22.60;72.70
8711;DHT22;4392;47.400;8.062;2022-07-10T10:13:10;22.60;73.20
8711;DHT22;4392;47.400;8.062;2022-07-10T10:15:37;22.70;73.80
8711;DHT22;4392;47.400;8.062;2022-07-10T10:18:03;22.70;73.30
8711;DHT22;4392;47.400;8.062;2022-07-10T10:20:31;22.80;74.10
8711;DHT22;4392;47.400;8.062;2022-07-10T10:23:10;22.90;73.70
8711;DHT22;4392;47.400;8.062;2022-07-10T10:25:37;23.00;72.50
8711;DHT22;4392;47.400;8.062;2022-07-10T10:28:05;22.90;72.80
8711;DHT22;4392;47.400;8.062;2022-07-10T10:30:35;22.80;72.80
8711;DHT22;4392;47.400;8.062;2022-07-10T10:33:02;22.80;73.80
8711;DHT22;4392;47.400;8.062;2022-07-10T10:35:45;22.80;73.70
8711;DHT22;4392;47.400;8.062;2022-07-10T10:38:14;23.00;72.30
8711;DHT22;4392;47.400;8.062;2022-07-10T10:40:41;23.10;70.40
8711;DHT22;4392;47.400;8.062;2022-07-10T10:45:47;23.00;69.40
8711;DHT22;4392;47.400;8.062;2022-07-10T10:48:17;23.10;69.60
8711;DHT22;4392;47.400;8.062;2022-07-10T10:50:46;23.20;69.50
8711;DHT22;4392;47.400;8.062;2022-07-10T10:58:41;23.20;70.00
8711;DHT22;4392;47.400;8.062;2022-07-10T11:14:32;23.20;71.60
8711;DHT22;4392;47.400;8.062;2022-07-10T11:16:58;23.20;70.40
8711;DHT22;4392;47.400;8.062;2022-07-10T11:19:26;23.20;69.20
8711;DHT22;4392;47.400;8.062;2022-07-10T11:27:34;23.20;68.20
8711;DHT22;4392;47.400;8.062;2022-07-10T11:30:02;23.20;69.10
8711;DHT22;4392;47.400;8.062;2022-07-10T11:32:28;23.20;71.70
8711;DHT22;4392;47.400;8.062;2022-07-10T11:34:55;23.30;71.60
8711;DHT22;4392;47.400;8.062;2022-07-10T11:37:23;23.40;70.40
8711;DHT22;4392;47.400;8.062;2022-07-10T11:40:10;23.50;69.90
8711;DHT22;4392;47.400;8.062;2022-07-10T11:45:26;23.30;68.40
8711;DHT22;4392;47.400;8.062;2022-07-10T11:47:52;23.30;68.70
8711;DHT22;4392;47.400;8.062;2022-07-10T11:50:18;23.50;69.00
8711;DHT22;4392;47.400;8.062;2022-07-10T11:52:45;23.50;69.10
8711;DHT22;4392;47.400;8.062;2022-07-10T11:55:21;23.40;70.00
8711;DHT22;4392;47.400;8.062;2022-07-10T11:57:48;23.40;69.60
8711;DHT22;4392;47.400;8.062;2022-07-10T12:00:26;23.40;68.30
8711;DHT22;4392;47.400;8.062;2022-07-10T12:02:56;23.40;68.40
8711;DHT22;4392;47.400;8.062;2022-07-10T12:05:36;23.30;66.90
8711;DHT22;4392;47.400;8.062;2022-07-10T12:08:04;23.40;67.40
8711;DHT22;4392;47.400;8.062;2022-07-10T12:10:31;23.40;67.40
8711;DHT22;4392;47.400;8.062;2022-07-10T12:13:13;23.50;66.90
8711;DHT22;4392;47.400;8.062;2022-07-10T12:18:16;23.60;65.60
8711;DHT22;4392;47.400;8.062;2022-07-10T12:20:43;23.70;65.50
8711;DHT22;4392;47.400;8.062;2022-07-10T12:23:12;23.80;65.30
8711;DHT22;4392;47.400;8.062;2022-07-10T12:25:45;23.80;63.80
8711;DHT22;4392;47.400;8.062;2022-07-10T12:28:12;23.50;63.60
8711;DHT22;4392;47.400;8.062;2022-07-10T12:30:46;23.50;63.30
8711;DHT22;4392;47.400;8.062;2022-07-10T12:33:19;23.60;63.20
8711;DHT22;4392;47.400;8.062;2022-07-10T12:35:56;23.60;62.70
8711;DHT22;4392;47.400;8.062;2022-07-10T12:38:30;23.60;63.10
8711;DHT22;4392;47.400;8.062;2022-07-10T12:41:12;23.60;62.30
8711;DHT22;4392;47.400;8.062;2022-07-10T12:43:40;23.70;61.60
8711;DHT22;4392;47.400;8.062;2022-07-10T12:48:36;23.90;61.30
8711;DHT22;4392;47.400;8.062;2022-07-10T12:51:25;23.90;58.90
8711;DHT22;4392;47.400;8.062;2022-07-10T12:53:52;24.00;58.00
8711;DHT22;4392;47.400;8.062;2022-07-10T12:56:37;24.10;57.80
8711;DHT22;4392;47.400;8.062;2022-07-10T12:59:13;24.20;55.80
8711;DHT22;4392;47.400;8.062;2022-07-10T13:01:43;24.20;54.50
8711;DHT22;4392;47.400;8.062;2022-07-10T13:04:10;24.20;54.10
8711;DHT22;4392;47.400;8.062;2022-07-10T13:06:37;24.30;54.30
8711;DHT22;4392;47.400;8.062;2022-07-10T13:09:20;24.30;55.20
8711;DHT22;4392;47.400;8.062;2022-07-10T13:11:48;24.40;54.70
8711;DHT22;4392;47.400;8.062;2022-07-10T13:14:13;24.40;54.20
8711;DHT22;4392;47.400;8.062;2022-07-10T13:16:39;24.50;54.20
8711;DHT22;4392;47.400;8.062;2022-07-10T13:19:05;24.60;54.30
8711;DHT22;4392;47.400;8.062;2022-07-10T13:21:33;24.60;52.70
8711;DHT22;4392;47.400;8.062;2022-07-10T13:24:05;24.70;53.60
8711;DHT22;4392;47.400;8.062;2022-07-10T13:26:31;24.80;53.40
8711;DHT22;4392;47.400;8.062;2022-07-10T13:28:58;24.90;53.90
8711;DHT22;4392;47.400;8.062;2022-07-10T13:31:24;24.90;53.40
8711;DHT22;4392;47.400;8.062;2022-07-10T13:33:53;25.00;53.80
8711;DHT22;4392;47.400;8.062;2022-07-10T13:36:18;25.10;53.30
8711;DHT22;4392;47.400;8.062;2022-07-10T13:38:44;25.10;51.90
8711;DHT22;4392;47.400;8.062;2022-07-10T13:41:12;25.20;50.20
8711;DHT22;4392;47.400;8.062;2022-07-10T13:43:38;25.20;50.40
8711;DHT22;4392;47.400;8.062;2022-07-10T13:46:04;25.20;50.60
8711;DHT22;4392;47.400;8.062;2022-07-10T13:48:29;25.20;50.80
8711;DHT22;4392;47.400;8.062;2022-07-10T13:50:56;25.30;52.00
8711;DHT22;4392;47.400;8.062;2022-07-10T13:53:23;25.30;50.80
8711;DHT22;4392;47.400;8.062;2022-07-10T13:55:48;25.30;50.60
8711;DHT22;4392;47.400;8.062;2022-07-10T13:58:15;25.30;50.50
8711;DHT22;4392;47.400;8.062;2022-07-10T14:00:41;25.40;51.10
8711;DHT22;4392;47.400;8.062;2022-07-10T14:03:07;25.50;49.80
8711;DHT22;4392;47.400;8.062;2022-07-10T14:05:33;25.60;49.60
8711;DHT22;4392;47.400;8.062;2022-07-10T14:08:00;25.70;48.10
8711;DHT22;4392;47.400;8.062;2022-07-10T14:10:26;25.80;48.00
8711;DHT22;4392;47.400;8.062;2022-07-10T14:12:56;26.00;47.90
8711;DHT22;4392;47.400;8.062;2022-07-10T14:15:22;26.00;46.00
8711;DHT22;4392;47.400;8.062;2022-07-10T14:17:48;26.00;45.80
8711;DHT22;4392;47.400;8.062;2022-07-10T14:20:15;26.00;45.40
8711;DHT22;4392;47.400;8.062;2022-07-10T14:22:42;26.10;45.90
8711;DHT22;4392;47.400;8.062;2022-07-10T14:25:11;26.10;46.00
8711;DHT22;4392;47.400;8.062;2022-07-10T14:27:37;26.10;45.10
8711;DHT22;4392;47.400;8.062;2022-07-10T14:30:05;26.20;44.40
8711;DHT22;4392;47.400;8.062;2022-07-10T14:32:31;26.10;44.20
8711;DHT22;4392;47.400;8.062;2022-07-10T14:34:57;26.30;45.00
8711;DHT22;4392;47.400;8.062;2022-07-10T14:37:23;26.40;45.70
8711;DHT22;4392;47.400;8.062;2022-07-10T14:39:49;26.40;46.50
8711;DHT22;4392;47.400;8.062;2022-07-10T14:42:15;26.50;46.10
8711;DHT22;4392;47.400;8.062;2022-07-10T14:44:40;26.50;45.00
8711;DHT22;4392;47.400;8.062;2022-07-10T14:47:09;26.50;44.40
8711;DHT22;4392;47.400;8.062;2022-07-10T14:49:34;26.70;43.90
8711;DHT22;4392;47.400;8.062;2022-07-10T14:52:00;26.70;44.20
8711;DHT22;4392;47.400;8.062;2022-07-10T14:54:26;26.70;44.70
8711;DHT22;4392;47.400;8.062;2022-07-10T14:56:54;26.80;45.30
8711;DHT22;4392;47.400;8.062;2022-07-10T14:59:19;26.90;43.40
8711;DHT22;4392;47.400;8.062;2022-07-10T15:01:45;26.90;43.20
8711;DHT22;4392;47.400;8.062;2022-07-10T15:04:11;26.90;43.10
8711;DHT22;4392;47.400;8.062;2022-07-10T15:06:36;26.90;42.60
8711;DHT22;4392;47.400;8.062;2022-07-10T15:09:04;26.60;42.50
8711;DHT22;4392;47.400;8.062;2022-07-10T15:11:30;26.70;42.90
8711;DHT22;4392;47.400;8.062;2022-07-10T15:13:56;26.70;43.50
8711;DHT22;4392;47.400;8.062;2022-07-10T15:16:28;26.80;43.20
8711;DHT22;4392;47.400;8.062;2022-07-10T15:18:54;26.80;43.90
8711;DHT22;4392;47.400;8.062;2022-07-10T15:21:21;27.10;44.50
8711;DHT22;4392;47.400;8.062;2022-07-10T15:23:46;27.10;43.70
8711;DHT22;4392;47.400;8.062;2022-07-10T15:26:13;27.20;43.90
8711;DHT22;4392;47.400;8.062;2022-07-10T15:28:39;27.40;41.70
8711;DHT22;4392;47.400;8.062;2022-07-10T15:31:05;27.30;42.10
8711;DHT22;4392;47.400;8.062;2022-07-10T15:33:33;27.40;41.90
8711;DHT22;4392;47.400;8.062;2022-07-10T15:36:00;27.40;41.80
8711;DHT22;4392;47.400;8.062;2022-07-10T15:38:26;27.30;42.60
8711;DHT22;4392;47.400;8.062;2022-07-10T15:40:51;27.40;40.00
8711;DHT22;4392;47.400;8.062;2022-07-10T15:43:17;27.50;41.80
8711;DHT22;4392;47.400;8.062;2022-07-10T15:45:43;27.60;40.20
8711;DHT22;4392;47.400;8.062;2022-07-10T15:48:08;27.60;39.10
8711;DHT22;4392;47.400;8.062;2022-07-10T15:50:40;27.70;39.00
8711;DHT22;4392;47.400;8.062;2022-07-10T15:53:06;27.70;40.30
8711;DHT22;4392;47.400;8.062;2022-07-10T15:55:32;27.70;40.10
8711;DHT22;4392;47.400;8.062;2022-07-10T15:57:58;28.00;38.50
8711;DHT22;4392;47.400;8.062;2022-07-10T16:00:23;27.80;37.90
8711;DHT22;4392;47.400;8.062;2022-07-10T16:02:49;27.70;37.90
8711;DHT22;4392;47.400;8.062;2022-07-10T16:05:16;27.80;37.90
8711;DHT22;4392;47.400;8.062;2022-07-10T16:07:44;28.00;38.10
8711;DHT22;4392;47.400;8.062;2022-07-10T16:10:09;28.10;37.40
8711;DHT22;4392;47.400;8.062;2022-07-10T16:12:35;27.90;36.80
8711;DHT22;4392;47.400;8.062;2022-07-10T16:15:01;27.90;37.30
8711;DHT22;4392;47.400;8.062;2022-07-10T16:17:27;27.90;36.50
8711;DHT22;4392;47.400;8.062;2022-07-10T16:19:52;27.80;36.20
8711;DHT22;4392;47.400;8.062;2022-07-10T16:22:18;27.90;37.10
8711;DHT22;4392;47.400;8.062;2022-07-10T16:24:44;28.10;35.30
8711;DHT22;4392;47.400;8.062;2022-07-10T16:27:28;28.10;35.70
8711;DHT22;4392;47.400;8.062;2022-07-10T16:29:53;28.20;36.80
8711;DHT22;4392;47.400;8.062;2022-07-10T16:32:19;28.10;36.40
8711;DHT22;4392;47.400;8.062;2022-07-10T16:34:46;28.00;37.20
8711;DHT22;4392;47.400;8.062;2022-07-10T16:37:12;28.30;36.70
8711;DHT22;4392;47.400;8.062;2022-07-10T16:39:38;28.10;35.70
8711;DHT22;4392;47.400;8.062;2022-07-10T16:42:04;28.20;35.50
8711;DHT22;4392;47.400;8.062;2022-07-10T16:44:30;28.30;35.90
8711;DHT22;4392;47.400;8.062;2022-07-10T16:46:56;28.20;35.80
8711;DHT22;4392;47.400;8.062;2022-07-10T16:49:21;28.10;35.60